createdAt,value
2018-11-12T00:01:23.183Z,59.90
2018-11-12T00:03:50.530Z,59.70
2018-11-12T00:06:17.955Z,59.90
2018-11-12T00:08:45.302Z,59.30
2018-11-12T00:11:12.605Z,59.70
2018-11-12T00:13:39.935Z,59.40
2018-11-12T00:16:07.319Z,59.90
2018-11-12T00:18:34.892Z,59.30
2018-11-12T00:21:02.439Z,58.30
2018-11-12T00:23:29.966Z,58.00
2018-11-12T00:25:57.454Z,58.60
2018-11-12T00:28:24.958Z,58.10
2018-11-12T00:30:52.519Z,57.60
2018-11-12T00:33:20.038Z,57.20
2018-11-12T00:35:47.550Z,57.00
2018-11-12T00:38:15.140Z,57.50
2018-11-12T00:40:42.670Z,56.90
2018-11-12T00:43:10.167Z,57.20
2018-11-12T00:45:37.734Z,56.90
2018-11-12T00:48:05.484Z,56.20
2018-11-12T00:50:32.995Z,56.20
2018-11-12T00:53:00.503Z,56.10
2018-11-12T00:55:28.071Z,55.00
2018-11-12T00:57:55.623Z,55.00
2018-11-12T01:00:23.110Z,55.80
2018-11-12T01:02:50.598Z,56.50
2018-11-12T01:05:18.713Z,56.60
2018-11-12T01:07:46.812Z,56.10
2018-11-12T01:10:15.454Z,56.90
2018-11-12T01:12:43.657Z,56.90
2018-11-12T01:15:14.043Z,56.90
2018-11-12T01:17:42.817Z,57.10
2018-11-12T01:20:11.491Z,56.90
2018-11-12T01:22:38.781Z,56.60
2018-11-12T01:25:06.664Z,56.00
2018-11-12T01:27:33.955Z,56.90
2018-11-12T01:30:01.252Z,57.90
2018-11-12T01:32:28.898Z,58.90
2018-11-12T01:34:56.458Z,58.30
2018-11-12T01:37:23.952Z,59.40
2018-11-12T01:39:51.529Z,59.70
2018-11-12T01:42:19.085Z,60.10
2018-11-12T01:44:46.562Z,60.70
2018-11-12T01:47:14.041Z,58.00
2018-11-12T01:49:41.538Z,59.60
2018-11-12T01:52:09.123Z,60.20
2018-11-12T01:54:36.630Z,60.90
2018-11-12T01:57:04.147Z,62.40
2018-11-12T01:59:31.714Z,63.20
2018-11-12T02:01:59.218Z,63.50
2018-11-12T02:04:26.769Z,63.50
2018-11-12T02:06:54.301Z,64.50
2018-11-12T02:09:21.776Z,65.40
2018-11-12T02:11:49.479Z,65.50
2018-11-12T02:14:17.023Z,64.80
2018-11-12T02:16:44.579Z,64.70
2018-11-12T02:19:12.176Z,64.10
2018-11-12T02:21:39.663Z,65.00
2018-11-12T02:24:07.127Z,64.00
2018-11-12T02:26:34.679Z,64.20
2018-11-12T02:29:02.189Z,63.70
2018-11-12T02:31:29.715Z,63.40
2018-11-12T02:33:57.184Z,62.70
2018-11-12T02:36:24.728Z,62.70
2018-11-12T02:38:52.181Z,62.30
2018-11-12T02:41:19.671Z,62.40
2018-11-12T02:43:47.190Z,62.80
2018-11-12T02:46:14.705Z,61.20
2018-11-12T02:48:42.229Z,60.70
2018-11-12T02:51:09.803Z,60.10
2018-11-12T02:53:37.428Z,61.20
2018-11-12T02:56:05.031Z,60.60
2018-11-12T02:58:32.612Z,60.20
2018-11-12T03:01:01.210Z,60.00
2018-11-12T03:03:28.774Z,60.00
2018-11-12T03:05:56.559Z,59.90
2018-11-12T03:08:24.739Z,62.20
2018-11-12T03:10:52.351Z,63.20
2018-11-12T03:13:19.899Z,64.20
2018-11-12T03:15:47.503Z,65.10
2018-11-12T03:18:15.094Z,64.70
2018-11-12T03:20:42.666Z,66.20
2018-11-12T03:23:10.319Z,66.40
2018-11-12T03:25:37.867Z,67.70
2018-11-12T03:28:05.500Z,66.80
2018-11-12T03:30:33.739Z,67.60
2018-11-12T03:33:01.318Z,67.10
2018-11-12T03:35:29.011Z,67.00
2018-11-12T03:37:56.579Z,67.40
2018-11-12T03:40:24.176Z,68.20
2018-11-12T03:42:52.112Z,67.90
2018-11-12T03:45:21.628Z,68.70
2018-11-12T03:47:49.167Z,69.00
2018-11-12T03:50:17.910Z,70.40
2018-11-12T03:52:45.579Z,70.00
2018-11-12T03:55:14.368Z,70.20
2018-11-12T03:57:42.053Z,69.70
2018-11-12T04:00:11.469Z,70.20
2018-11-12T04:02:39.060Z,70.10
2018-11-12T04:05:07.141Z,68.70
2018-11-12T04:07:34.753Z,68.40
2018-11-12T04:10:02.291Z,68.40
2018-11-12T04:12:29.788Z,67.70
2018-11-12T04:14:57.312Z,67.90
2018-11-12T04:17:24.854Z,67.60
2018-11-12T04:19:52.475Z,68.00
2018-11-12T04:22:19.988Z,67.50
2018-11-12T04:24:47.527Z,66.30
2018-11-12T04:27:15.014Z,66.00
2018-11-12T04:29:42.527Z,65.90
2018-11-12T04:32:10.166Z,66.30
2018-11-12T04:34:37.729Z,66.20
2018-11-12T04:37:05.218Z,66.30
2018-11-12T04:39:32.834Z,63.40
2018-11-12T04:42:00.325Z,63.00
2018-11-12T04:44:27.818Z,64.50
2018-11-12T04:46:55.316Z,64.80
2018-11-12T04:49:22.842Z,65.30
2018-11-12T04:51:50.395Z,65.90
2018-11-12T04:54:17.962Z,66.20
2018-11-12T04:56:45.498Z,65.50
2018-11-12T04:59:13.054Z,65.90
2018-11-12T05:01:40.632Z,66.50
2018-11-12T05:04:08.131Z,66.90
2018-11-12T05:06:35.677Z,66.70
2018-11-12T05:09:04.209Z,66.80
2018-11-12T05:11:31.787Z,67.70
2018-11-12T05:13:59.355Z,67.50
2018-11-12T05:16:26.959Z,66.90
2018-11-12T05:18:54.518Z,67.10
2018-11-12T05:21:22.034Z,67.20
2018-11-12T05:23:49.573Z,67.20
2018-11-12T05:26:17.153Z,67.70
2018-11-12T05:28:44.813Z,67.80
2018-11-12T05:31:12.650Z,68.10
2018-11-12T05:33:40.670Z,68.60
2018-11-12T05:36:08.199Z,69.40
2018-11-12T05:38:35.775Z,69.60
2018-11-12T05:41:03.615Z,70.90
2018-11-12T05:43:31.227Z,71.30
2018-11-12T05:45:58.823Z,70.10
2018-11-12T05:48:26.402Z,70.00
2018-11-12T05:50:54.055Z,70.50
2018-11-12T05:53:21.695Z,70.20
2018-11-12T05:55:49.331Z,70.70
2018-11-12T05:58:16.883Z,71.30
2018-11-12T06:00:44.803Z,71.30
2018-11-12T06:03:12.447Z,71.60
2018-11-12T06:05:40.019Z,71.80
2018-11-12T06:08:07.599Z,72.60
2018-11-12T06:10:35.530Z,72.70
2018-11-12T06:13:03.193Z,72.50
2018-11-12T06:15:30.767Z,73.30
2018-11-12T06:17:58.324Z,73.70
2018-11-12T06:20:27.213Z,74.90
2018-11-12T06:22:54.811Z,75.70
2018-11-12T06:25:23.835Z,75.80
2018-11-12T06:27:51.729Z,75.50
2018-11-12T06:30:20.515Z,75.30
2018-11-12T06:32:48.088Z,75.50
2018-11-12T06:35:16.103Z,76.20
2018-11-12T06:37:44.535Z,76.40
2018-11-12T06:40:14.357Z,77.40
2018-11-12T06:42:42.076Z,77.70
2018-11-12T06:45:16.662Z,78.50
2018-11-12T06:47:45.822Z,78.80
2018-11-12T06:50:20.987Z,78.90
2018-11-12T06:52:48.428Z,78.10
2018-11-12T06:55:16.318Z,78.50
2018-11-12T06:57:44.016Z,78.70
2018-11-12T07:00:13.556Z,78.70
2018-11-12T07:02:40.836Z,79.10
2018-11-12T07:05:09.003Z,78.20
2018-11-12T07:07:36.592Z,77.50
2018-11-12T07:10:05.221Z,78.10
2018-11-12T07:12:32.495Z,77.40
2018-11-12T07:14:59.803Z,78.20
2018-11-12T07:17:27.150Z,79.80
2018-11-12T07:19:54.531Z,78.70
2018-11-12T07:22:22.307Z,79.10
2018-11-12T07:24:49.620Z,78.90
2018-11-12T07:27:17.296Z,79.60
2018-11-12T07:29:44.668Z,79.60
2018-11-12T07:32:13.484Z,79.10
2018-11-12T07:34:40.804Z,80.70
2018-11-12T07:37:08.143Z,80.90
2018-11-12T07:39:35.447Z,80.40
2018-11-12T07:42:02.893Z,80.60
2018-11-12T07:44:30.297Z,80.90
2018-11-12T07:46:57.837Z,82.10
2018-11-12T07:49:25.227Z,81.90
2018-11-12T07:51:52.627Z,82.20
2018-11-12T07:54:20.087Z,83.60
2018-11-12T07:56:47.577Z,83.50
2018-11-12T07:59:14.963Z,83.80
2018-11-12T08:01:42.362Z,82.70
2018-11-12T08:04:10.132Z,82.70
2018-11-12T08:06:37.474Z,83.00
2018-11-12T08:09:06.717Z,82.40
2018-11-12T08:11:34.034Z,82.50
2018-11-12T08:14:01.415Z,82.90
2018-11-12T08:16:29.188Z,83.00
2018-11-12T08:18:56.900Z,82.50
2018-11-12T08:21:24.610Z,82.70
2018-11-12T08:23:52.240Z,82.50
2018-11-12T08:26:19.827Z,82.70
2018-11-12T08:28:47.469Z,82.50
2018-11-12T08:31:15.087Z,82.20
2018-11-12T08:33:43.738Z,82.40
2018-11-12T08:36:11.167Z,82.50
2018-11-12T08:38:39.570Z,82.70
2018-11-12T08:41:07.003Z,81.80
2018-11-12T08:43:34.294Z,82.00
2018-11-12T08:46:01.687Z,82.50
2018-11-12T08:48:29.078Z,82.50
2018-11-12T08:50:56.411Z,82.50
2018-11-12T08:53:23.924Z,82.50
2018-11-12T08:55:51.278Z,82.50
2018-11-12T08:58:19.275Z,81.00
2018-11-12T09:00:46.138Z,81.40
2018-11-12T09:03:13.645Z,81.60
2018-11-12T09:05:45.107Z,81.80
2018-11-12T09:08:12.596Z,82.60
2018-11-12T09:10:40.105Z,82.70
2018-11-12T09:13:07.518Z,82.70
2018-11-12T09:15:34.881Z,82.90
2018-11-12T09:18:02.538Z,82.00
2018-11-12T09:20:29.854Z,82.40
2018-11-12T09:22:57.219Z,81.90
2018-11-12T09:25:25.802Z,81.00
2018-11-12T09:27:53.189Z,81.50
2018-11-12T09:30:29.620Z,81.10
2018-11-12T09:32:57.136Z,81.50
2018-11-12T09:35:25.890Z,81.60
2018-11-12T09:37:54.043Z,81.20
2018-11-12T09:40:27.186Z,82.60
2018-11-12T09:42:58.618Z,83.20
2018-11-12T09:45:26.022Z,83.70
2018-11-12T09:47:53.529Z,82.00
2018-11-12T09:50:22.154Z,82.60
2018-11-12T09:52:50.685Z,82.90
2018-11-12T09:55:23.133Z,83.30
2018-11-12T09:57:52.794Z,83.80
2018-11-12T10:00:20.835Z,85.30
2018-11-12T10:02:49.222Z,84.60
2018-11-12T10:05:17.228Z,84.60
2018-11-12T10:07:55.164Z,84.80
2018-11-12T10:10:48.795Z,84.70
2018-11-12T10:13:18.041Z,85.00
2018-11-12T10:15:47.075Z,85.00
2018-11-12T10:20:38.143Z,84.30
2018-11-12T10:23:09.383Z,84.80
2018-11-12T10:25:37.102Z,84.60
2018-11-12T10:28:04.698Z,85.20
2018-11-12T10:30:32.015Z,86.60
2018-11-12T10:32:59.349Z,88.40
2018-11-12T10:35:26.620Z,88.80
2018-11-12T10:37:58.261Z,88.90
2018-11-12T10:40:26.262Z,88.60
2018-11-12T10:42:53.723Z,87.10
2018-11-12T10:45:21.216Z,85.80
2018-11-12T10:47:49.613Z,82.30
2018-11-12T10:50:16.979Z,80.20
2018-11-12T10:52:49.555Z,77.50
2018-11-12T10:55:18.362Z,74.00
2018-11-12T10:57:46.213Z,73.10
2018-11-12T11:00:27.704Z,70.60
2018-11-12T11:03:03.702Z,68.70
2018-11-12T11:05:31.094Z,65.70
2018-11-12T11:07:58.443Z,63.80
2018-11-12T11:10:26.761Z,61.60
2018-11-12T11:12:56.995Z,58.90
2018-11-12T11:15:24.544Z,57.10
2018-11-12T11:17:51.896Z,56.80
2018-11-12T11:20:19.265Z,55.40
2018-11-12T11:22:46.744Z,54.20
2018-11-12T11:25:19.361Z,52.90
2018-11-12T11:27:46.722Z,52.70
2018-11-12T11:30:15.351Z,50.80
2018-11-12T11:32:44.015Z,50.40
2018-11-12T11:35:12.453Z,48.90
2018-11-12T11:37:44.119Z,45.90
2018-11-12T11:40:14.036Z,45.00
2018-11-12T11:42:41.635Z,45.10
2018-11-12T11:45:09.843Z,45.50
2018-11-12T11:47:37.889Z,44.60
2018-11-12T11:50:11.705Z,42.50
2018-11-12T11:52:38.954Z,40.90
2018-11-12T11:55:08.178Z,40.60
2018-11-12T11:57:35.662Z,38.30
2018-11-12T12:00:04.680Z,38.40
2018-11-12T12:02:35.680Z,39.80
2018-11-12T12:05:03.243Z,39.30
2018-11-12T12:07:30.670Z,37.90
2018-11-12T12:09:57.945Z,37.30
2018-11-12T12:12:25.542Z,34.70
2018-11-12T12:14:52.912Z,30.60
2018-11-12T12:17:26.859Z,31.80
2018-11-12T12:19:54.444Z,31.50
2018-11-12T12:22:21.961Z,29.70
2018-11-12T12:24:49.703Z,29.20
2018-11-12T12:27:20.720Z,27.50
2018-11-12T12:29:49.269Z,25.90
2018-11-12T12:32:16.841Z,27.30
2018-11-12T12:34:44.563Z,26.00
2018-11-12T12:37:12.170Z,24.90
2018-11-12T12:39:39.667Z,25.80
2018-11-12T12:42:10.300Z,25.10
2018-11-12T12:44:37.810Z,24.70
2018-11-12T12:47:05.390Z,25.80
2018-11-12T12:49:34.027Z,24.00
2018-11-12T12:52:02.001Z,25.10
2018-11-12T12:54:33.663Z,23.90
2018-11-12T12:57:01.190Z,23.20
2018-11-12T12:59:28.860Z,23.40
2018-11-12T13:01:56.851Z,24.10
2018-11-12T13:04:25.348Z,25.50
2018-11-12T13:06:56.970Z,24.20
2018-11-12T13:09:24.591Z,25.70
2018-11-12T13:11:52.288Z,26.90
2018-11-12T13:14:20.047Z,26.80
2018-11-12T13:16:48.351Z,28.90
2018-11-12T13:19:21.202Z,30.90
2018-11-12T13:21:48.823Z,33.60
2018-11-12T13:24:17.968Z,37.20
2018-11-12T13:26:45.697Z,39.10
2018-11-12T13:29:13.966Z,41.50
2018-11-12T13:31:46.180Z,43.70
2018-11-12T13:34:14.119Z,46.60
2018-11-12T13:36:41.670Z,48.90
2018-11-12T13:39:10.565Z,52.70
2018-11-12T13:41:38.562Z,51.00
2018-11-12T13:44:09.646Z,53.70
2018-11-12T13:46:43.184Z,55.90
2018-11-12T13:49:10.671Z,58.00
2018-11-12T13:51:38.241Z,61.00
2018-11-12T13:54:10.474Z,62.60
2018-11-12T13:56:38.051Z,63.80
2018-11-12T13:59:06.083Z,65.00
2018-11-12T14:01:33.705Z,66.40
2018-11-12T14:04:01.291Z,68.90
2018-11-12T14:06:28.880Z,69.80
2018-11-12T14:08:58.656Z,70.20
2018-11-12T14:11:26.238Z,71.10
2018-11-12T14:13:54.593Z,70.10
2018-11-12T14:16:22.106Z,71.00
2018-11-12T14:18:49.655Z,70.40
2018-11-12T14:21:22.140Z,70.20
2018-11-12T14:23:49.553Z,70.60
2018-11-12T14:26:17.161Z,71.50
2018-11-12T14:28:46.286Z,71.00
2018-11-12T14:31:14.029Z,71.20
2018-11-12T14:33:44.428Z,71.70
2018-11-12T14:36:13.084Z,71.80
2018-11-12T14:38:40.663Z,72.90
2018-11-12T14:41:08.023Z,72.70
2018-11-12T14:43:35.530Z,72.80
2018-11-12T14:46:02.954Z,73.40
2018-11-12T14:48:33.085Z,73.50
2018-11-12T14:51:00.496Z,73.70
2018-11-12T14:53:27.880Z,73.20
2018-11-12T14:55:55.286Z,73.10
2018-11-12T14:58:22.679Z,72.40
2018-11-12T15:00:53.502Z,72.30
2018-11-12T15:03:20.854Z,73.00
2018-11-12T15:05:48.258Z,73.50
2018-11-12T15:08:15.698Z,73.80
2018-11-12T15:10:43.056Z,75.00
2018-11-12T15:13:10.432Z,75.20
2018-11-12T15:15:37.763Z,76.00
2018-11-12T15:18:07.574Z,77.30
2018-11-12T15:20:34.958Z,77.10
2018-11-12T15:23:02.284Z,78.00
2018-11-12T15:25:29.674Z,77.60
2018-11-12T15:27:59.769Z,78.20
2018-11-12T15:30:27.360Z,78.60
2018-11-12T15:32:56.010Z,78.50
2018-11-12T15:35:23.581Z,78.40
2018-11-12T15:37:51.563Z,78.40
2018-11-12T15:40:18.962Z,78.60
2018-11-12T15:42:46.363Z,78.20
2018-11-12T15:45:16.078Z,79.40
2018-11-12T15:47:44.422Z,79.80
2018-11-12T15:50:21.090Z,80.30
2018-11-12T15:52:48.393Z,81.20
2018-11-12T15:55:15.939Z,82.40
2018-11-12T15:57:43.146Z,81.90
2018-11-12T16:00:12.947Z,81.90
2018-11-12T16:02:40.511Z,82.40
2018-11-12T16:05:08.600Z,80.70
2018-11-12T16:07:35.941Z,79.90
2018-11-12T16:10:03.410Z,79.30
2018-11-12T16:12:30.765Z,79.10
2018-11-12T16:14:59.864Z,79.80
2018-11-12T16:17:27.158Z,79.20
2018-11-12T16:19:54.510Z,78.40
2018-11-12T16:22:21.864Z,78.30
2018-11-12T16:24:49.160Z,79.00
2018-11-12T16:27:16.615Z,78.50
2018-11-12T16:29:44.067Z,77.90
2018-11-12T16:32:11.603Z,77.70
2018-11-12T16:34:38.939Z,77.40
2018-11-12T16:37:06.231Z,77.90
2018-11-12T16:39:33.557Z,77.90
2018-11-12T16:42:00.904Z,76.90
2018-11-12T16:44:28.220Z,76.00
2018-11-12T16:46:55.895Z,75.80
2018-11-12T16:49:23.184Z,77.60
2018-11-12T16:51:50.542Z,77.20
2018-11-12T16:54:18.955Z,77.70
2018-11-12T16:56:46.647Z,78.10
2018-11-12T17:02:10.406Z,78.10
2018-11-12T17:10:41.391Z,77.30
2018-11-12T17:13:08.820Z,77.30
2018-11-12T17:15:36.335Z,76.90
2018-11-12T17:18:04.447Z,76.40
2018-11-12T17:20:32.132Z,76.30
2018-11-12T17:23:00.221Z,76.70
2018-11-12T17:25:27.643Z,77.80
2018-11-12T17:27:55.399Z,78.40
2018-11-12T17:30:23.152Z,79.60
2018-11-12T17:32:50.854Z,80.30
2018-11-12T17:35:19.647Z,80.80
2018-11-12T17:37:47.322Z,81.50
2018-11-12T17:40:21.064Z,81.20
2018-11-12T17:42:49.098Z,81.00
2018-11-12T17:45:17.800Z,80.90
2018-11-12T17:47:47.681Z,80.90
2018-11-12T17:50:15.147Z,81.40
2018-11-12T17:52:42.511Z,81.20
2018-11-12T17:55:10.351Z,81.20
2018-11-12T17:57:37.768Z,81.90
2018-11-12T18:00:33.020Z,81.90
2018-11-12T18:03:00.378Z,81.90
2018-11-12T18:05:27.742Z,81.70
2018-11-12T18:07:55.114Z,81.40
2018-11-12T18:10:22.776Z,80.50
2018-11-12T18:12:50.112Z,81.30
2018-11-12T18:15:21.244Z,81.30
2018-11-12T18:17:48.705Z,81.70
2018-11-12T18:20:17.796Z,82.20
2018-11-12T18:22:45.813Z,82.00
2018-11-12T18:25:13.630Z,82.00
2018-11-12T18:27:40.939Z,81.50
2018-11-12T18:30:12.399Z,80.60
2018-11-12T18:32:39.846Z,80.70
2018-11-12T18:35:07.551Z,81.60
2018-11-12T18:37:35.260Z,80.90
2018-11-12T18:40:02.737Z,80.40
2018-11-12T18:42:30.047Z,80.00
2018-11-12T18:44:57.354Z,79.30
2018-11-12T18:47:24.743Z,79.30
2018-11-12T18:49:52.111Z,79.90
2018-11-12T18:52:19.573Z,79.70
2018-11-12T18:54:47.087Z,79.40
2018-11-12T18:57:14.547Z,79.00
2018-11-12T18:59:42.027Z,79.20
2018-11-12T19:02:09.528Z,79.60
2018-11-12T19:04:36.950Z,79.20
2018-11-12T19:07:04.502Z,79.10
2018-11-12T19:09:31.896Z,79.90
2018-11-12T19:11:59.278Z,80.20
2018-11-12T19:14:26.671Z,80.40
2018-11-12T19:16:54.103Z,79.90
2018-11-12T19:19:21.488Z,79.60
2018-11-12T19:21:48.939Z,79.30
2018-11-12T19:24:16.303Z,79.00
2018-11-12T19:26:43.716Z,78.60
2018-11-12T19:29:11.143Z,78.30
2018-11-12T19:31:38.534Z,77.70
2018-11-12T19:34:05.961Z,77.60
2018-11-12T19:36:33.355Z,77.50
2018-11-12T19:39:00.722Z,77.50
2018-11-12T19:41:28.130Z,77.50
2018-11-12T19:43:55.578Z,76.30
2018-11-12T19:46:22.954Z,76.00
2018-11-12T19:48:50.367Z,75.40
2018-11-12T19:51:17.771Z,76.00
2018-11-12T19:53:45.022Z,75.60
2018-11-12T19:56:12.334Z,75.30
2018-11-12T19:58:39.740Z,74.60
2018-11-12T20:01:07.086Z,74.60
2018-11-12T20:03:34.398Z,74.20
2018-11-12T20:06:01.768Z,74.90
2018-11-12T20:08:29.088Z,75.30
2018-11-12T20:10:56.391Z,75.10
2018-11-12T20:13:23.718Z,74.90
2018-11-12T20:15:51.125Z,75.80
2018-11-12T20:18:18.363Z,76.20
2018-11-12T20:20:45.666Z,76.30
2018-11-12T20:23:12.969Z,77.90
2018-11-12T20:25:40.262Z,77.40
2018-11-12T20:28:07.571Z,77.40
2018-11-12T20:30:37.645Z,77.40
2018-11-12T20:33:05.361Z,77.60
2018-11-12T20:35:32.654Z,76.80
2018-11-12T20:38:00.004Z,77.00
2018-11-12T20:40:27.331Z,76.30
2018-11-12T20:42:54.671Z,76.20
2018-11-12T20:45:22.484Z,76.30
2018-11-12T20:47:51.168Z,76.00
2018-11-12T20:50:18.442Z,76.10
2018-11-12T20:52:45.849Z,75.20
2018-11-12T20:55:14.195Z,75.20
2018-11-12T20:58:02.199Z,75.30
2018-11-12T21:00:32.094Z,75.00
2018-11-12T21:02:59.595Z,74.60
2018-11-12T21:05:28.380Z,74.40
2018-11-12T21:07:55.913Z,73.40
2018-11-12T21:10:23.534Z,73.40
2018-11-12T21:12:51.413Z,72.80
2018-11-12T21:15:20.052Z,73.20
2018-11-12T21:17:47.622Z,72.70
2018-11-12T21:20:23.026Z,72.90
2018-11-12T21:22:50.549Z,73.20
2018-11-12T21:25:19.617Z,72.20
2018-11-12T21:28:05.354Z,72.30
2018-11-12T21:30:50.119Z,72.10
2018-11-12T21:33:40.514Z,72.50
2018-11-12T21:36:31.204Z,72.10
2018-11-12T21:39:45.113Z,72.40
2018-11-12T21:42:35.776Z,72.00
2018-11-12T21:45:25.543Z,71.80
2018-11-12T21:48:08.459Z,71.10
2018-11-12T21:51:03.963Z,71.30
2018-11-12T21:53:32.029Z,71.90
2018-11-12T21:55:59.991Z,71.60
2018-11-12T21:58:28.000Z,71.80
2018-11-12T22:00:55.890Z,72.40
2018-11-12T22:03:23.837Z,72.60
2018-11-12T22:05:51.881Z,72.10
2018-11-12T22:08:19.891Z,72.70
2018-11-12T22:10:47.727Z,72.10
2018-11-12T22:13:15.759Z,71.60
2018-11-12T22:15:43.637Z,71.40
2018-11-12T22:18:11.583Z,71.00
2018-11-12T22:20:39.568Z,70.90
2018-11-12T22:23:07.416Z,70.60
2018-11-12T22:25:35.329Z,70.50
2018-11-12T22:28:03.141Z,71.20
2018-11-12T22:30:33.194Z,71.60
2018-11-12T22:33:01.036Z,71.70
2018-11-12T22:35:28.854Z,72.10
2018-11-12T22:37:56.872Z,73.60
2018-11-12T22:40:24.800Z,73.30
2018-11-12T22:42:53.033Z,73.20
2018-11-12T22:45:26.159Z,73.20
2018-11-12T22:47:54.055Z,73.50
2018-11-12T22:50:34.650Z,73.40
2018-11-12T22:56:08.840Z,75.40
2018-11-12T22:58:51.275Z,77.00
2018-11-12T23:01:30.766Z,77.00
2018-11-12T23:04:01.715Z,77.50
2018-11-12T23:06:30.672Z,77.30
2018-11-12T23:08:58.251Z,77.00
2018-11-12T23:11:25.966Z,76.60
2018-11-12T23:13:53.584Z,77.00
2018-11-12T23:16:21.124Z,75.70
2018-11-12T23:18:48.636Z,75.40
2018-11-12T23:21:16.123Z,75.60
2018-11-12T23:23:43.719Z,76.00
2018-11-12T23:26:11.268Z,75.90
2018-11-12T23:28:38.838Z,75.20
2018-11-12T23:31:06.366Z,75.50
2018-11-12T23:33:33.884Z,74.80
2018-11-12T23:36:01.436Z,74.80
2018-11-12T23:38:28.972Z,74.80
2018-11-12T23:40:56.518Z,74.50
2018-11-12T23:43:24.049Z,74.10
2018-11-12T23:45:51.543Z,73.70
2018-11-12T23:48:19.149Z,73.70
2018-11-12T23:50:46.704Z,73.70
2018-11-12T23:53:14.374Z,74.00
2018-11-12T23:55:41.943Z,74.00
2018-11-12T23:58:09.518Z,74.90
